createdAt,value
2022-10-16T00:00:55.349Z,97667.06
2022-10-16T00:03:25.391Z,97664.38
2022-10-16T00:05:54.827Z,97679.75
2022-10-16T00:08:21.534Z,97677.09
2022-10-16T00:10:48.214Z,97681.44
2022-10-16T00:13:14.916Z,97656.38
2022-10-16T00:15:44.052Z,97673.00
2022-10-16T00:18:11.028Z,97659.44
2022-10-16T00:20:38.087Z,97676.47
2022-10-16T00:23:06.171Z,97685.31
2022-10-16T00:25:33.955Z,97657.22
2022-10-16T00:28:01.959Z,97702.91
2022-10-16T00:30:29.090Z,97696.78
2022-10-16T00:32:56.315Z,97682.28
2022-10-16T00:35:23.087Z,97691.91
2022-10-16T00:37:49.868Z,97654.97
2022-10-16T00:40:17.221Z,97663.41
2022-10-16T00:42:43.859Z,97692.38
2022-10-16T00:45:11.122Z,97663.94
2022-10-16T00:47:43.270Z,97663.53
2022-10-16T00:50:11.891Z,97667.66
2022-10-16T00:52:42.794Z,97705.97
2022-10-16T00:55:10.483Z,97677.81
2022-10-16T00:57:38.507Z,97688.28
2022-10-16T01:00:08.374Z,97696.69
2022-10-16T01:02:35.633Z,97684.53
2022-10-16T01:05:03.944Z,97654.38
2022-10-16T01:07:58.115Z,97697.00
2022-10-16T01:10:30.931Z,97699.47
2022-10-16T01:13:06.807Z,97693.94
2022-10-16T01:18:18.097Z,97692.72
2022-10-16T01:20:59.239Z,97667.03
2022-10-16T01:23:25.837Z,97698.94
2022-10-16T01:25:55.343Z,97688.41
2022-10-16T01:28:29.115Z,97660.22
2022-10-16T01:31:00.844Z,97686.28
2022-10-16T01:33:36.849Z,97663.94
2022-10-16T01:36:16.863Z,97695.25
2022-10-16T01:38:48.812Z,97674.59
2022-10-16T01:41:26.041Z,97654.88
2022-10-16T01:44:17.394Z,97644.22
2022-10-16T01:46:48.519Z,97656.84
2022-10-16T01:49:15.666Z,97636.78
2022-10-16T01:51:46.318Z,97633.91
2022-10-16T01:54:16.171Z,97659.41
2022-10-16T01:56:44.515Z,97674.75
2022-10-16T01:59:15.215Z,97672.56
2022-10-16T02:01:46.412Z,97688.28
2022-10-16T02:04:24.017Z,97663.16
2022-10-16T02:06:51.034Z,97690.06
2022-10-16T02:09:17.940Z,97660.97
2022-10-16T02:11:45.580Z,97673.69
2022-10-16T02:14:12.258Z,97684.47
2022-10-16T02:16:44.892Z,97649.19
2022-10-16T02:19:13.267Z,97655.63
2022-10-16T02:21:45.616Z,97681.25
2022-10-16T02:24:35.892Z,97674.63
2022-10-16T02:27:10.379Z,97699.84
2022-10-16T02:29:42.251Z,97691.22
2022-10-16T02:32:11.457Z,97693.59
2022-10-16T02:34:39.083Z,97664.13
2022-10-16T02:37:07.792Z,97647.09
2022-10-16T02:39:35.681Z,97672.41
2022-10-16T02:42:02.567Z,97664.53
2022-10-16T02:44:29.226Z,97658.56
2022-10-16T02:46:55.867Z,97645.19
2022-10-16T02:49:22.535Z,97653.50
2022-10-16T02:51:49.184Z,97659.41
2022-10-16T02:54:15.834Z,97644.88
2022-10-16T02:56:42.464Z,97645.69
2022-10-16T02:59:09.631Z,97684.28
2022-10-16T03:01:37.027Z,97651.38
2022-10-16T03:04:04.034Z,97660.31
2022-10-16T03:06:30.696Z,97640.03
2022-10-16T03:08:57.362Z,97640.72
2022-10-16T03:11:24.141Z,97659.34
2022-10-16T03:13:50.713Z,97672.94
2022-10-16T03:16:17.351Z,97701.09
2022-10-16T03:18:43.971Z,97664.31
2022-10-16T03:21:10.626Z,97666.03
2022-10-16T03:23:37.275Z,97687.53
2022-10-16T03:26:03.907Z,97669.69
2022-10-16T03:28:30.593Z,97684.06
2022-10-16T03:30:57.287Z,97666.03
2022-10-16T03:33:26.602Z,97701.16
2022-10-16T03:35:54.617Z,97691.53
2022-10-16T03:38:22.243Z,97676.22
2022-10-16T03:40:49.297Z,97641.06
2022-10-16T03:43:16.183Z,97642.41
2022-10-16T03:45:42.897Z,97682.59
2022-10-16T03:48:09.469Z,97676.00
2022-10-16T03:50:36.177Z,97665.47
2022-10-16T03:53:03.143Z,97691.41
2022-10-16T03:55:29.776Z,97672.91
2022-10-16T03:57:56.358Z,97669.81
2022-10-16T04:00:23.174Z,97664.03
2022-10-16T04:02:49.819Z,97665.00
2022-10-16T04:05:16.545Z,97632.44
2022-10-16T04:07:43.169Z,97650.06
2022-10-16T04:10:10.003Z,97653.19
2022-10-16T04:12:36.608Z,97669.19
2022-10-16T04:15:03.457Z,97662.78
2022-10-16T04:17:30.080Z,97673.75
2022-10-16T04:19:56.648Z,97643.63
2022-10-16T04:22:23.294Z,97667.41
2022-10-16T04:24:49.932Z,97694.59
2022-10-16T04:27:16.527Z,97682.22
2022-10-16T04:29:43.117Z,97688.13
2022-10-16T04:32:13.008Z,97689.44
2022-10-16T04:34:41.185Z,97658.38
2022-10-16T04:37:07.843Z,97658.16
2022-10-16T04:39:34.535Z,97683.59
2022-10-16T04:42:01.332Z,97688.47
2022-10-16T04:44:27.997Z,97676.84
2022-10-16T04:46:54.801Z,97673.66
2022-10-16T04:49:21.683Z,97681.25
2022-10-16T04:51:48.642Z,97686.25
2022-10-16T04:54:15.288Z,97676.22
2022-10-16T04:56:47.888Z,97696.97
2022-10-16T04:59:16.045Z,97696.97
2022-10-16T05:01:42.962Z,97697.88
2022-10-16T05:04:09.931Z,97695.69
2022-10-16T05:06:36.996Z,97698.78
2022-10-16T05:09:04.065Z,97699.66
2022-10-16T05:11:30.818Z,97685.00
2022-10-16T05:13:57.738Z,97691.00
2022-10-16T05:16:24.542Z,97714.38
2022-10-16T05:18:56.190Z,97682.78
2022-10-16T05:21:31.182Z,97712.59
2022-10-16T05:23:57.914Z,97721.88
2022-10-16T05:26:24.780Z,97722.66
2022-10-16T05:28:51.731Z,97708.97
2022-10-16T05:31:18.613Z,97724.94
2022-10-16T05:33:45.400Z,97727.25
2022-10-16T05:36:12.410Z,97720.56
2022-10-16T05:38:39.553Z,97724.00
2022-10-16T05:41:06.566Z,97708.91
2022-10-16T05:43:33.611Z,97726.47
2022-10-16T05:46:05.471Z,97724.34
2022-10-16T05:48:33.024Z,97724.50
2022-10-16T05:51:01.067Z,97726.38
2022-10-16T05:53:33.259Z,97724.50
2022-10-16T05:56:00.145Z,97727.72
2022-10-16T05:58:30.866Z,97729.50
2022-10-16T06:01:03.337Z,97721.97
2022-10-16T06:03:30.106Z,97712.75
2022-10-16T06:05:56.749Z,97695.47
2022-10-16T06:08:24.324Z,97705.16
2022-10-16T06:11:01.695Z,97718.28
2022-10-16T06:13:28.618Z,97708.88
2022-10-16T06:15:59.072Z,97719.47
2022-10-16T06:18:27.123Z,97718.25
2022-10-16T06:20:54.874Z,97714.31
2022-10-16T06:23:25.366Z,97714.06
2022-10-16T06:25:52.073Z,97708.72
2022-10-16T06:28:18.781Z,97716.69
2022-10-16T06:30:45.659Z,97721.22
2022-10-16T06:33:12.634Z,97736.91
2022-10-16T06:35:39.298Z,97732.69
2022-10-16T06:38:05.873Z,97721.31
2022-10-16T06:40:32.621Z,97743.34
2022-10-16T06:42:59.164Z,97752.59
2022-10-16T06:45:25.699Z,97739.09
2022-10-16T06:47:52.236Z,97721.31
2022-10-16T06:50:18.788Z,97750.47
2022-10-16T06:52:45.351Z,97727.53
2022-10-16T06:55:12.129Z,97755.38
2022-10-16T06:57:38.670Z,97741.28
2022-10-16T07:00:06.129Z,97742.53
2022-10-16T07:02:32.724Z,97761.41
2022-10-16T07:04:59.532Z,97731.44
2022-10-16T07:07:27.600Z,97764.53
2022-10-16T07:09:54.391Z,97772.50
2022-10-16T07:12:20.993Z,97741.44
2022-10-16T07:14:47.787Z,97759.63
2022-10-16T07:17:16.516Z,97736.72
2022-10-16T07:19:43.063Z,97746.03
2022-10-16T07:22:09.859Z,97775.78
2022-10-16T07:24:36.418Z,97775.03
2022-10-16T07:27:03.013Z,97788.91
2022-10-16T07:29:29.614Z,97786.59
2022-10-16T07:31:56.221Z,97782.94
2022-10-16T07:34:22.976Z,97753.00
2022-10-16T07:36:50.960Z,97789.03
2022-10-16T07:39:18.273Z,97772.47
2022-10-16T07:41:44.929Z,97785.94
2022-10-16T07:44:11.655Z,97802.47
2022-10-16T07:46:38.522Z,97796.88
2022-10-16T07:49:05.243Z,97770.72
2022-10-16T07:51:32.073Z,97788.38
2022-10-16T07:53:58.832Z,97790.00
2022-10-16T07:56:25.389Z,97788.97
2022-10-16T07:58:53.041Z,97801.59
2022-10-16T08:01:20.381Z,97806.06
2022-10-16T08:03:49.811Z,97794.47
2022-10-16T08:06:19.650Z,97792.72
2022-10-16T08:08:48.977Z,97790.25
2022-10-16T08:11:15.949Z,97806.50
2022-10-16T08:13:43.372Z,97820.75
2022-10-16T08:16:10.886Z,97817.00
2022-10-16T08:18:38.662Z,97813.53
2022-10-16T08:21:05.759Z,97826.84
2022-10-16T08:23:34.029Z,97824.41
2022-10-16T08:26:08.808Z,97814.91
2022-10-16T08:28:36.367Z,97815.59
2022-10-16T08:31:15.160Z,97815.59
2022-10-16T08:33:43.963Z,97795.56
2022-10-16T08:36:11.761Z,97813.94
2022-10-16T08:38:38.810Z,97809.09
2022-10-16T08:41:14.388Z,97821.06
2022-10-16T08:44:06.670Z,97813.75
2022-10-16T08:46:33.142Z,97817.84
2022-10-16T08:49:01.120Z,97821.81
2022-10-16T08:51:30.082Z,97803.13
2022-10-16T08:53:59.617Z,97817.66
2022-10-16T08:56:27.381Z,97824.72
2022-10-16T08:58:59.647Z,97805.41
2022-10-16T09:01:41.718Z,97822.78
2022-10-16T09:04:30.766Z,97822.41
2022-10-16T09:07:14.003Z,97825.47
2022-10-16T09:10:12.701Z,97828.47
2022-10-16T09:12:58.905Z,97836.03
2022-10-16T09:15:35.849Z,97838.72
2022-10-16T09:18:07.571Z,97834.81
2022-10-16T09:20:43.608Z,97810.53
2022-10-16T09:23:35.669Z,97833.38
2022-10-16T09:26:04.124Z,97835.72
2022-10-16T09:28:31.309Z,97833.03
2022-10-16T09:30:58.258Z,97821.72
2022-10-16T09:33:29.737Z,97826.59
2022-10-16T09:35:59.837Z,97832.88
2022-10-16T09:38:32.125Z,97815.88
2022-10-16T09:41:03.574Z,97830.53
2022-10-16T09:43:42.578Z,97828.50
2022-10-16T09:46:29.089Z,97813.00
2022-10-16T09:48:58.762Z,97830.03
2022-10-16T09:51:31.634Z,97824.16
2022-10-16T09:54:22.868Z,97825.94
2022-10-16T09:56:52.881Z,97837.47
2022-10-16T09:59:24.929Z,97817.94
2022-10-16T10:01:53.985Z,97829.66
2022-10-16T10:04:22.965Z,97824.75
2022-10-16T10:06:57.804Z,97815.38
2022-10-16T10:09:26.764Z,97814.75
2022-10-16T10:11:58.151Z,97819.16
2022-10-16T10:14:46.369Z,97819.47
2022-10-16T10:17:24.811Z,97811.69
2022-10-16T10:20:20.478Z,97814.06
2022-10-16T10:22:47.152Z,97804.16
2022-10-16T10:25:13.697Z,97805.47
2022-10-16T10:27:44.505Z,97810.97
2022-10-16T10:30:31.350Z,97803.06
2022-10-16T10:33:11.115Z,97807.34
2022-10-16T10:35:59.413Z,97813.38
2022-10-16T10:38:44.826Z,97808.28
2022-10-16T10:41:31.993Z,97800.88
2022-10-16T10:44:50.919Z,97806.09
2022-10-16T10:47:38.030Z,97800.66
2022-10-16T10:50:19.535Z,97797.03
2022-10-16T10:52:55.796Z,97802.56
2022-10-16T10:55:40.830Z,97798.16
2022-10-16T10:58:24.896Z,97798.66
2022-10-16T11:01:02.604Z,97777.97
2022-10-16T11:03:58.361Z,97788.41
2022-10-16T11:09:29.167Z,97782.13
2022-10-16T11:12:13.434Z,97773.66
2022-10-16T11:14:44.203Z,97781.41
2022-10-16T11:17:19.661Z,97783.59
2022-10-16T11:19:49.525Z,97777.34
2022-10-16T11:22:23.465Z,97780.00
2022-10-16T11:27:48.585Z,97777.13
2022-10-16T11:30:24.007Z,97776.13
2022-10-16T11:33:05.930Z,97781.53
2022-10-16T11:35:59.294Z,97766.50
2022-10-16T11:38:48.999Z,97783.84
2022-10-16T11:41:36.221Z,97776.34
2022-10-16T11:44:23.445Z,97776.13
2022-10-16T11:47:33.653Z,97782.59
2022-10-16T11:50:04.598Z,97773.81
2022-10-16T11:52:49.710Z,97782.47
2022-10-16T11:55:25.305Z,97753.59
2022-10-16T11:57:59.240Z,97769.72
2022-10-16T12:00:32.869Z,97759.84
2022-10-16T12:03:42.169Z,97757.84
2022-10-16T12:06:21.720Z,97762.00
2022-10-16T12:08:52.127Z,97747.13
2022-10-16T12:11:35.556Z,97738.88
2022-10-16T12:14:28.581Z,97749.53
2022-10-16T12:16:55.397Z,97747.22
2022-10-16T12:19:24.133Z,97745.72
2022-10-16T12:21:53.280Z,97739.41
2022-10-16T12:24:33.782Z,97717.56
2022-10-16T12:27:01.332Z,97717.09
2022-10-16T12:29:43.898Z,97731.72
2022-10-16T12:32:46.850Z,97717.84
2022-10-16T12:35:24.669Z,97728.28
2022-10-16T12:37:52.672Z,97729.44
2022-10-16T12:40:33.102Z,97730.25
2022-10-16T12:42:59.948Z,97732.44
2022-10-16T12:45:28.817Z,97721.81
2022-10-16T12:47:56.515Z,97732.22
2022-10-16T12:50:34.077Z,97723.72
2022-10-16T12:53:01.988Z,97728.72
2022-10-16T12:55:43.562Z,97726.50
2022-10-16T12:58:35.142Z,97742.19
2022-10-16T13:01:27.688Z,97737.50
2022-10-16T13:04:14.347Z,97732.88
2022-10-16T13:06:52.475Z,97745.03
2022-10-16T13:09:30.608Z,97742.47
2022-10-16T13:12:00.165Z,97746.56
2022-10-16T13:14:40.497Z,97744.06
2022-10-16T13:17:19.234Z,97742.81
2022-10-16T13:19:59.664Z,97735.84
2022-10-16T13:22:31.349Z,97733.66
2022-10-16T13:25:23.476Z,97733.00
2022-10-16T13:27:56.004Z,97729.41
2022-10-16T13:30:39.640Z,97731.72
2022-10-16T13:33:32.402Z,97729.78
2022-10-16T13:35:59.353Z,97732.81
2022-10-16T13:38:29.054Z,97738.13
2022-10-16T13:41:17.938Z,97719.94
2022-10-16T13:43:52.116Z,97724.97
2022-10-16T13:46:21.666Z,97721.97
2022-10-16T13:49:03.685Z,97725.03
2022-10-16T13:51:32.040Z,97723.00
2022-10-16T13:53:59.630Z,97722.19
2022-10-16T13:56:28.773Z,97739.00
2022-10-16T13:59:01.704Z,97739.47
2022-10-16T14:01:33.190Z,97732.59
2022-10-16T14:04:09.565Z,97731.84
2022-10-16T14:06:38.165Z,97733.16
2022-10-16T14:09:29.302Z,97717.47
2022-10-16T14:12:01.967Z,97727.44
2022-10-16T14:14:36.731Z,97727.94
2022-10-16T14:17:04.138Z,97734.44
2022-10-16T14:19:32.155Z,97735.78
2022-10-16T14:22:00.903Z,97749.97
2022-10-16T14:24:35.219Z,97721.22
2022-10-16T14:27:02.972Z,97753.34
2022-10-16T14:29:34.307Z,97743.91
2022-10-16T14:32:25.585Z,97751.78
2022-10-16T14:35:32.082Z,97755.34
2022-10-16T14:38:00.659Z,97759.22
2022-10-16T14:40:31.156Z,97753.59
2022-10-16T14:42:58.770Z,97760.44
2022-10-16T14:45:29.368Z,97769.84
2022-10-16T14:47:59.417Z,97770.19
2022-10-16T14:50:26.052Z,97764.00
2022-10-16T14:52:52.775Z,97762.16
2022-10-16T14:55:19.604Z,97784.25
2022-10-16T14:57:47.153Z,97759.25
2022-10-16T15:00:24.278Z,97781.25
2022-10-16T15:02:52.027Z,97780.44
2022-10-16T15:05:24.708Z,97779.31
2022-10-16T15:07:51.728Z,97782.56
2022-10-16T15:10:19.004Z,97777.19
2022-10-16T15:12:45.535Z,97792.13
2022-10-16T15:15:24.710Z,97793.19
2022-10-16T15:17:57.067Z,97779.38
2022-10-16T15:20:36.709Z,97786.41
2022-10-16T15:23:05.623Z,97792.09
2022-10-16T15:25:34.596Z,97792.66
2022-10-16T15:28:03.358Z,97789.66
2022-10-16T15:30:30.138Z,97791.06
2022-10-16T15:32:57.016Z,97789.16
2022-10-16T15:35:23.638Z,97801.94
2022-10-16T15:37:50.618Z,97778.31
2022-10-16T15:40:19.535Z,97805.66
2022-10-16T15:42:46.043Z,97800.16
2022-10-16T15:45:13.613Z,97804.25
2022-10-16T15:47:45.114Z,97815.84
2022-10-16T15:50:14.788Z,97815.22
2022-10-16T15:52:42.260Z,97823.34
2022-10-16T15:55:10.849Z,97828.19
2022-10-16T15:57:43.596Z,97813.72
2022-10-16T16:00:19.319Z,97812.31
2022-10-16T16:02:51.748Z,97827.22
2022-10-16T16:05:18.919Z,97828.19
2022-10-16T16:07:45.461Z,97813.69
2022-10-16T16:10:12.807Z,97825.28
2022-10-16T16:12:39.832Z,97844.69
2022-10-16T16:15:08.656Z,97831.25
2022-10-16T16:17:35.866Z,97840.25
2022-10-16T16:20:03.118Z,97845.66
2022-10-16T16:22:29.908Z,97852.94
2022-10-16T16:24:56.810Z,97853.25
2022-10-16T16:27:26.104Z,97858.25
2022-10-16T16:29:54.365Z,97848.75
2022-10-16T16:32:21.294Z,97851.56
2022-10-16T16:34:48.466Z,97857.91
2022-10-16T16:37:15.037Z,97865.09
2022-10-16T16:39:41.564Z,97848.66
2022-10-16T16:42:08.697Z,97869.00
2022-10-16T16:44:37.166Z,97871.50
2022-10-16T16:47:05.051Z,97865.69
2022-10-16T16:49:31.636Z,97878.19
2022-10-16T16:51:58.392Z,97874.34
2022-10-16T16:54:25.180Z,97886.47
2022-10-16T16:56:51.742Z,97889.47
2022-10-16T16:59:21.011Z,97887.84
2022-10-16T17:01:49.139Z,97900.81
2022-10-16T17:04:17.479Z,97899.00
2022-10-16T17:06:44.055Z,97907.53
2022-10-16T17:09:14.106Z,97913.91
2022-10-16T17:11:42.553Z,97913.41
2022-10-16T17:14:10.755Z,97896.34
2022-10-16T17:16:39.480Z,97922.25
2022-10-16T17:19:12.900Z,97925.56
2022-10-16T17:21:39.725Z,97933.06
2022-10-16T17:24:07.213Z,97933.41
2022-10-16T17:26:38.166Z,97946.94
2022-10-16T17:29:05.156Z,97929.66
2022-10-16T17:31:34.493Z,97944.84
2022-10-16T17:34:04.408Z,97945.31
2022-10-16T17:36:34.042Z,97942.50
2022-10-16T17:39:04.611Z,97961.81
2022-10-16T17:41:32.650Z,97954.06
2022-10-16T17:43:59.949Z,97970.13
2022-10-16T17:46:29.595Z,97967.16
2022-10-16T17:48:56.386Z,97969.78
2022-10-16T17:51:25.720Z,97966.59
2022-10-16T17:53:55.785Z,97985.69
2022-10-16T17:56:25.590Z,97984.56
2022-10-16T17:58:55.145Z,97990.72
2022-10-16T18:01:25.413Z,98000.78
2022-10-16T18:03:57.568Z,97993.19
2022-10-16T18:06:25.082Z,97995.97
2022-10-16T18:08:52.916Z,97999.28
2022-10-16T18:11:20.744Z,97996.41
2022-10-16T18:13:53.220Z,97986.97
2022-10-16T18:16:20.387Z,98020.44
2022-10-16T18:18:47.198Z,97994.81
2022-10-16T18:21:16.841Z,98018.47
2022-10-16T18:23:49.216Z,98000.31
2022-10-16T18:26:18.961Z,97991.06
2022-10-16T18:28:45.599Z,97984.75
2022-10-16T18:31:14.835Z,97987.22
2022-10-16T18:33:48.035Z,97988.50
2022-10-16T18:36:15.344Z,98011.91
2022-10-16T18:38:41.968Z,97982.63
2022-10-16T18:41:08.711Z,98005.81
2022-10-16T18:43:36.974Z,97990.47
2022-10-16T18:46:08.859Z,98017.41
2022-10-16T18:48:36.286Z,98026.31
2022-10-16T18:51:17.942Z,98026.06
2022-10-16T18:53:47.463Z,98015.75
2022-10-16T18:56:15.993Z,98010.59
2022-10-16T18:58:44.787Z,97987.41
2022-10-16T19:01:16.363Z,98007.91
2022-10-16T19:03:44.103Z,98016.94
2022-10-16T19:06:16.932Z,97971.34
2022-10-16T19:08:44.187Z,98015.63
2022-10-16T19:11:12.778Z,98014.47
2022-10-16T19:13:39.393Z,98012.81
2022-10-16T19:16:20.323Z,97995.69
2022-10-16T19:18:47.924Z,98019.13
2022-10-16T19:21:15.789Z,98025.34
2022-10-16T19:23:42.674Z,98019.97
2022-10-16T19:26:12.056Z,98024.97
2022-10-16T19:28:39.798Z,98027.31
2022-10-16T19:31:11.586Z,98018.81
2022-10-16T19:33:39.071Z,98018.75
2022-10-16T19:36:09.054Z,98010.53
2022-10-16T19:38:35.606Z,98005.47
2022-10-16T19:41:12.926Z,98025.72
2022-10-16T19:43:40.310Z,98021.81
2022-10-16T19:46:09.690Z,98014.41
2022-10-16T19:48:37.184Z,98008.06
2022-10-16T19:51:04.651Z,98002.78
2022-10-16T19:53:31.893Z,97984.94
2022-10-16T19:55:59.405Z,97971.47
2022-10-16T19:58:26.917Z,98008.75
2022-10-16T20:00:55.045Z,97985.75
2022-10-16T20:03:21.776Z,98012.34
2022-10-16T20:05:53.575Z,98017.47
2022-10-16T20:08:22.214Z,98002.63
2022-10-16T20:10:52.812Z,98006.50
2022-10-16T20:13:22.250Z,98002.91
2022-10-16T20:15:52.283Z,98004.03
2022-10-16T20:18:24.351Z,98011.41
2022-10-16T20:20:52.573Z,98006.72
2022-10-16T20:23:20.252Z,97971.78
2022-10-16T20:25:47.498Z,97979.09
2022-10-16T20:28:39.868Z,98016.88
2022-10-16T20:31:20.382Z,98012.56
2022-10-16T20:33:49.270Z,98007.84
2022-10-16T20:36:20.029Z,97983.22
2022-10-16T20:38:49.364Z,97981.91
2022-10-16T20:41:21.085Z,97994.00
2022-10-16T20:43:53.187Z,98042.78
2022-10-16T20:46:29.512Z,98035.44
2022-10-16T20:49:05.996Z,98060.22
2022-10-16T20:51:38.793Z,98058.00
2022-10-16T20:54:07.580Z,98046.91
2022-10-16T20:56:36.429Z,98047.53
2022-10-16T20:59:04.068Z,98073.31
2022-10-16T21:01:31.979Z,98046.09
2022-10-16T21:04:02.249Z,98043.09
2022-10-16T21:06:31.426Z,98072.00
2022-10-16T21:08:59.943Z,98051.75
2022-10-16T21:11:27.942Z,98030.41
2022-10-16T21:13:59.186Z,98043.19
2022-10-16T21:16:28.331Z,98044.09
2022-10-16T21:19:00.494Z,98033.16
2022-10-16T21:21:31.412Z,98018.41
2022-10-16T21:23:59.533Z,98068.56
2022-10-16T21:26:29.781Z,98060.81
2022-10-16T21:28:58.746Z,98073.66
2022-10-16T21:31:25.581Z,98050.66
2022-10-16T21:33:53.525Z,98060.94
2022-10-16T21:36:28.718Z,98073.16
2022-10-16T21:38:55.857Z,98069.56
2022-10-16T21:41:27.950Z,98080.00
2022-10-16T21:43:56.501Z,98087.13
2022-10-16T21:46:26.250Z,98099.09
2022-10-16T21:48:53.701Z,98074.44
2022-10-16T21:51:20.784Z,98088.00
2022-10-16T21:53:47.385Z,98073.78
2022-10-16T21:56:16.521Z,98095.41
2022-10-16T21:58:43.758Z,98074.88
2022-10-16T22:01:14.170Z,98084.81
2022-10-16T22:03:41.040Z,98097.19
2022-10-16T22:06:09.051Z,98099.88
2022-10-16T22:08:38.327Z,98087.13
2022-10-16T22:11:16.075Z,98108.97
2022-10-16T22:13:56.363Z,98088.31
2022-10-16T22:16:26.707Z,98082.94
2022-10-16T22:18:55.560Z,98080.41
2022-10-16T22:21:22.348Z,98099.50
2022-10-16T22:23:49.291Z,98058.84
2022-10-16T22:26:15.953Z,98080.00
2022-10-16T22:28:44.084Z,98063.31
2022-10-16T22:31:13.630Z,98071.56
2022-10-16T22:33:40.919Z,98077.84
2022-10-16T22:36:23.428Z,98039.81
2022-10-16T22:38:55.605Z,98085.66
2022-10-16T22:41:23.363Z,98062.25
2022-10-16T22:43:50.296Z,98067.63
2022-10-16T22:46:30.492Z,98087.03
2022-10-16T22:48:59.054Z,98091.19
2022-10-16T22:51:29.589Z,98072.88
2022-10-16T22:53:58.231Z,98104.22
2022-10-16T22:56:24.919Z,98078.47
2022-10-16T22:58:51.674Z,98075.22
2022-10-16T23:01:23.097Z,98096.16
2022-10-16T23:03:49.764Z,98097.22
2022-10-16T23:06:16.538Z,98075.31
2022-10-16T23:08:43.163Z,98089.50
2022-10-16T23:11:12.322Z,98094.41
2022-10-16T23:13:40.442Z,98093.34
2022-10-16T23:16:07.727Z,98067.03
2022-10-16T23:18:34.907Z,98079.00
2022-10-16T23:21:09.891Z,98092.28
2022-10-16T23:23:38.126Z,98096.75
2022-10-16T23:26:12.320Z,98086.84
2022-10-16T23:28:40.623Z,98059.50
2022-10-16T23:31:08.322Z,98097.06
2022-10-16T23:33:36.555Z,98100.47
2022-10-16T23:36:13.110Z,98107.34
2022-10-16T23:38:39.984Z,98101.03
2022-10-16T23:41:07.173Z,98107.50
2022-10-16T23:43:33.953Z,98110.25
2022-10-16T23:46:00.933Z,98090.63
2022-10-16T23:48:28.057Z,98117.72
2022-10-16T23:50:56.554Z,98075.13
2022-10-16T23:53:24.786Z,98082.75
2022-10-16T23:55:51.674Z,98081.03
2022-10-16T23:58:18.915Z,98104.94
